Copeville, Texas
Current Conditions -  °F | °C
As of 10:35 PM on Saturday 20 Dec 2014 (Local Time) from KF46 Reporting Station
Overcast Overcast  
Wind Chill: 44°   Ceiling: 3100
Heat Index: 47°   Visibility: 7mi
Dew Point: 45°   Wind: 6mph
Humidity: 95%   Direction: 100°E
Pressure: 30.18"   Gusts: NA
Location:  33.08°N, 96.42°W
Report Text: KF46 210435Z AUTO 10005KT 7SM OVC031 08/07 A3018 RMK AO2 T00810073
Loading
Personal Weather Stations






























Interactive Weather Map New forecast layout! Learn more

10-Day Weather Forecast

Advertisements
Track Severe Weather on mobile